createdAt,value
2019-02-16T00:01:46.564Z,19.02
2019-02-16T00:04:14.397Z,19.48
2019-02-16T00:06:42.226Z,19.82
2019-02-16T00:09:10.095Z,18.02
2019-02-16T00:11:37.939Z,20.65
2019-02-16T00:14:05.986Z,17.23
2019-02-16T00:16:33.810Z,19.02
2019-02-16T00:19:01.699Z,19.02
2019-02-16T00:21:29.511Z,18.52
2019-02-16T00:23:57.313Z,17.80
2019-02-16T00:26:25.151Z,18.85
2019-02-16T00:28:52.953Z,17.95
2019-02-16T00:31:20.825Z,17.17
2019-02-16T00:33:48.653Z,19.87
2019-02-16T00:36:16.505Z,19.80
2019-02-16T00:38:44.326Z,18.15
2019-02-16T00:41:12.121Z,18.80
2019-02-16T00:43:39.970Z,17.87
2019-02-16T00:46:08.046Z,17.62
2019-02-16T00:48:35.862Z,18.73
2019-02-16T00:51:12.910Z,19.75
2019-02-16T00:53:33.271Z,18.92
2019-02-16T00:56:01.088Z,18.17
2019-02-16T00:58:28.933Z,20.68
2019-02-16T01:00:56.846Z,18.87
2019-02-16T01:03:24.725Z,20.85
2019-02-16T01:05:52.518Z,17.92
2019-02-16T01:08:20.369Z,17.55
2019-02-16T01:10:48.213Z,18.07
2019-02-16T01:13:16.119Z,18.12
2019-02-16T01:15:43.927Z,19.37
2019-02-16T01:18:12.048Z,20.23
2019-02-16T01:20:39.865Z,17.77
2019-02-16T01:23:07.728Z,17.07
2019-02-16T01:25:35.553Z,17.52
2019-02-16T01:28:03.406Z,17.20
2019-02-16T01:30:31.244Z,18.25
2019-02-16T01:32:59.078Z,18.20
2019-02-16T01:35:26.877Z,19.30
2019-02-16T01:37:54.730Z,17.80
2019-02-16T01:40:22.553Z,16.10
2019-02-16T01:42:50.352Z,17.25
2019-02-16T01:45:18.223Z,18.85
2019-02-16T01:47:46.102Z,18.60
2019-02-16T01:50:14.377Z,15.15
2019-02-16T01:52:42.342Z,17.12
2019-02-16T01:55:10.594Z,16.80
2019-02-16T01:57:38.394Z,18.45
2019-02-16T02:00:06.947Z,17.65
2019-02-16T02:02:34.757Z,18.30
2019-02-16T02:05:02.847Z,16.37
2019-02-16T02:07:30.700Z,20.08
2019-02-16T02:09:58.522Z,19.17
2019-02-16T02:12:26.317Z,19.52
2019-02-16T02:14:54.190Z,18.32
2019-02-16T02:17:22.007Z,16.27
2019-02-16T02:19:49.826Z,17.70
2019-02-16T02:22:17.627Z,16.75
2019-02-16T02:24:45.467Z,16.50
2019-02-16T02:27:13.302Z,18.65
2019-02-16T02:29:41.114Z,16.90
2019-02-16T02:32:08.926Z,17.27
2019-02-16T02:34:36.745Z,18.05
2019-02-16T02:37:04.683Z,19.02
2019-02-16T02:39:32.531Z,17.42
2019-02-16T02:42:00.362Z,17.75
2019-02-16T02:44:28.182Z,17.98
2019-02-16T02:46:56.016Z,18.37
2019-02-16T02:49:23.816Z,16.07
2019-02-16T02:51:52.626Z,17.48
2019-02-16T02:54:20.545Z,18.37
2019-02-16T02:56:48.382Z,22.67
2019-02-16T02:59:16.210Z,17.70
2019-02-16T03:01:44.159Z,18.00
2019-02-16T03:04:11.971Z,16.20
2019-02-16T03:06:39.813Z,18.40
2019-02-16T03:09:07.633Z,17.65
2019-02-16T03:11:35.456Z,16.70
2019-02-16T03:14:03.338Z,18.15
2019-02-16T03:16:31.173Z,16.00
2019-02-16T03:18:59.058Z,17.55
2019-02-16T03:21:26.894Z,16.62
2019-02-16T03:23:54.720Z,16.70
2019-02-16T03:26:44.776Z,17.40
2019-02-16T03:29:31.186Z,17.50
2019-02-16T03:32:21.628Z,18.65
2019-02-16T03:34:54.821Z,15.58
2019-02-16T03:37:50.834Z,17.15
2019-02-16T03:40:18.657Z,16.35
2019-02-16T03:42:46.500Z,15.53
2019-02-16T03:45:14.306Z,15.10
2019-02-16T03:47:42.172Z,17.98
2019-02-16T03:50:09.974Z,17.98
2019-02-16T03:52:37.814Z,14.70
2019-02-16T03:55:05.695Z,16.93
2019-02-16T03:57:33.518Z,15.72
2019-02-16T04:00:01.325Z,15.75
2019-02-16T04:02:29.203Z,18.40
2019-02-16T04:04:57.070Z,15.75
2019-02-16T04:07:25.249Z,15.78
2019-02-16T04:09:53.061Z,18.65
2019-02-16T04:12:20.866Z,15.03
2019-02-16T04:14:48.728Z,16.23
2019-02-16T04:17:16.602Z,16.02
2019-02-16T04:19:44.431Z,15.30
2019-02-16T04:22:12.247Z,16.25
2019-02-16T04:24:40.095Z,14.73
2019-02-16T04:27:07.929Z,15.98
2019-02-16T04:29:35.768Z,17.77
2019-02-16T04:32:03.575Z,17.10
2019-02-16T04:34:31.441Z,16.62
2019-02-16T04:36:59.295Z,15.08
2019-02-16T04:39:27.555Z,16.20
2019-02-16T04:41:55.350Z,15.48
2019-02-16T04:44:23.207Z,19.40
2019-02-16T04:46:51.004Z,20.35
2019-02-16T04:49:18.853Z,18.05
2019-02-16T04:51:46.673Z,16.52
2019-02-16T04:54:14.476Z,17.42
2019-02-16T04:56:42.303Z,17.27
2019-02-16T04:59:10.122Z,16.90
2019-02-16T05:01:37.957Z,18.17
2019-02-16T05:04:05.789Z,20.57
2019-02-16T05:06:33.626Z,18.20
2019-02-16T05:09:01.455Z,16.82
2019-02-16T05:11:29.632Z,17.00
2019-02-16T05:13:57.510Z,19.48
2019-02-16T05:16:25.385Z,17.85
2019-02-16T05:18:53.217Z,16.73
2019-02-16T05:21:21.056Z,17.73
2019-02-16T05:23:48.882Z,17.00
2019-02-16T05:26:16.752Z,17.65
2019-02-16T05:28:44.629Z,19.10
2019-02-16T05:31:12.447Z,16.95
2019-02-16T05:33:40.242Z,19.67
2019-02-16T05:36:08.115Z,15.15
2019-02-16T05:38:35.902Z,16.73
2019-02-16T05:41:03.720Z,17.10
2019-02-16T05:43:31.696Z,16.32
2019-02-16T05:45:59.542Z,16.85
2019-02-16T05:48:27.353Z,19.07
2019-02-16T05:50:55.162Z,16.57
2019-02-16T05:53:23.007Z,15.48
2019-02-16T05:55:50.827Z,16.35
2019-02-16T05:58:18.663Z,14.40
2019-02-16T06:00:46.458Z,14.80
2019-02-16T06:03:14.369Z,16.70
2019-02-16T06:05:42.186Z,14.30
2019-02-16T06:08:10.013Z,15.90
2019-02-16T06:10:37.836Z,14.38
2019-02-16T06:13:05.956Z,14.68
2019-02-16T06:15:34.169Z,14.47
2019-02-16T06:18:02.002Z,14.60
2019-02-16T06:20:29.824Z,14.95
2019-02-16T06:23:03.950Z,14.60
2019-02-16T06:25:27.170Z,16.65
2019-02-16T06:27:55.001Z,15.15
2019-02-16T06:30:22.812Z,15.63
2019-02-16T06:32:50.670Z,14.65
2019-02-16T06:35:37.590Z,15.55
2019-02-16T06:38:05.445Z,15.25
2019-02-16T06:40:33.271Z,17.50
2019-02-16T06:43:01.128Z,16.97
2019-02-16T06:45:28.944Z,15.55
2019-02-16T06:47:56.821Z,14.50
2019-02-16T06:50:24.605Z,16.60
2019-02-16T06:52:52.513Z,14.70
2019-02-16T06:55:20.331Z,18.45
2019-02-16T06:57:51.496Z,15.32
2019-02-16T07:00:22.014Z,17.37
2019-02-16T07:02:49.833Z,15.58
2019-02-16T07:05:17.665Z,16.25
2019-02-16T07:07:45.481Z,15.83
2019-02-16T07:10:13.301Z,18.90
2019-02-16T07:12:41.165Z,15.68
2019-02-16T07:15:09.144Z,15.95
2019-02-16T07:17:58.911Z,15.68
2019-02-16T07:20:26.754Z,18.62
2019-02-16T07:22:54.603Z,15.75
2019-02-16T07:25:23.333Z,21.45
2019-02-16T07:27:51.155Z,16.10
2019-02-16T07:30:19.013Z,15.18
2019-02-16T07:32:46.869Z,16.62
2019-02-16T07:35:14.719Z,15.10
2019-02-16T07:37:42.612Z,16.05
2019-02-16T07:40:11.266Z,17.45
2019-02-16T07:42:52.923Z,14.23
2019-02-16T07:45:47.541Z,15.20
2019-02-16T07:48:46.411Z,16.62
2019-02-16T07:51:28.137Z,15.90
2019-02-16T07:54:20.851Z,15.93
2019-02-16T07:56:53.765Z,19.42
2019-02-16T07:59:27.362Z,16.25
2019-02-16T08:02:23.383Z,15.23
2019-02-16T08:05:16.299Z,17.65
2019-02-16T08:07:50.354Z,17.15
2019-02-16T08:10:46.353Z,15.20
2019-02-16T08:13:36.078Z,16.20
2019-02-16T08:16:19.117Z,16.02
2019-02-16T08:19:11.810Z,15.35
2019-02-16T08:22:14.096Z,16.60
2019-02-16T08:24:49.974Z,17.40
2019-02-16T08:27:41.934Z,17.57
2019-02-16T08:30:31.189Z,17.20
2019-02-16T08:33:18.089Z,16.07
2019-02-16T08:36:20.165Z,16.02
2019-02-16T08:39:25.066Z,16.52
2019-02-16T08:42:14.952Z,16.73
2019-02-16T08:44:50.447Z,15.50
2019-02-16T08:47:29.451Z,17.00
2019-02-16T08:50:22.142Z,15.95
2019-02-16T08:53:11.861Z,16.32
2019-02-16T08:55:52.151Z,16.70
2019-02-16T08:58:41.798Z,19.57
2019-02-16T09:01:27.657Z,18.90
2019-02-16T09:04:14.582Z,18.02
2019-02-16T09:07:07.496Z,18.32
2019-02-16T09:10:01.076Z,18.57
2019-02-16T09:12:43.670Z,18.35
2019-02-16T09:15:30.586Z,18.85
2019-02-16T09:18:12.636Z,18.05
2019-02-16T09:20:59.516Z,19.77
2019-02-16T09:23:59.096Z,17.83
2019-02-16T09:26:34.855Z,20.37
2019-02-16T09:29:09.299Z,18.82
2019-02-16T09:32:01.520Z,20.80
2019-02-16T09:34:51.186Z,19.90
2019-02-16T09:37:29.206Z,18.23
2019-02-16T09:40:16.091Z,19.87
2019-02-16T09:42:52.379Z,18.52
2019-02-16T09:45:45.968Z,18.10
2019-02-16T09:48:36.119Z,18.70
2019-02-16T09:51:19.087Z,19.60
2019-02-16T09:54:08.680Z,18.40
2019-02-16T09:56:58.834Z,20.83
2019-02-16T09:59:45.731Z,20.37
2019-02-16T10:02:32.677Z,18.60
2019-02-16T10:05:09.546Z,20.73
2019-02-16T10:07:56.433Z,19.00
2019-02-16T10:10:32.731Z,18.80
2019-02-16T10:13:09.294Z,18.60
2019-02-16T10:16:05.038Z,21.20
2019-02-16T10:18:54.915Z,19.20
2019-02-16T10:21:53.868Z,19.10
2019-02-16T10:24:40.732Z,19.00
2019-02-16T10:27:14.886Z,17.97
2019-02-16T10:30:14.020Z,16.90
2019-02-16T10:32:59.541Z,18.03
2019-02-16T10:35:52.494Z,16.50
2019-02-16T10:38:29.454Z,16.13
2019-02-16T10:41:08.192Z,15.70
2019-02-16T10:44:07.260Z,15.10
2019-02-16T10:46:56.985Z,14.03
2019-02-16T10:49:43.869Z,17.13
2019-02-16T10:52:33.807Z,14.33
2019-02-16T10:55:26.704Z,15.30
2019-02-16T10:58:18.161Z,16.33
2019-02-16T11:01:08.062Z,15.83
2019-02-16T11:03:44.806Z,17.00
2019-02-16T11:06:31.717Z,16.57
2019-02-16T11:09:27.550Z,18.40
2019-02-16T11:12:04.176Z,20.57
2019-02-16T11:14:55.014Z,23.43
2019-02-16T11:17:40.371Z,24.47
2019-02-16T11:20:36.273Z,23.93
2019-02-16T11:23:38.222Z,25.20
2019-02-16T11:26:20.371Z,24.77
2019-02-16T11:29:11.217Z,24.40
2019-02-16T11:32:07.399Z,26.07
2019-02-16T11:35:06.613Z,27.80
2019-02-16T11:37:56.518Z,26.43
2019-02-16T11:40:43.690Z,26.37
2019-02-16T11:43:36.708Z,27.40
2019-02-16T11:46:35.832Z,27.00
2019-02-16T11:49:19.736Z,26.67
2019-02-16T11:52:06.611Z,25.40
2019-02-16T11:55:02.983Z,25.08
2019-02-16T11:57:58.742Z,26.40
2019-02-16T12:00:43.377Z,26.70
2019-02-16T12:03:25.555Z,25.27
2019-02-16T12:06:03.020Z,26.67
2019-02-16T12:08:47.336Z,24.72
2019-02-16T12:11:43.227Z,26.15
2019-02-16T12:14:29.157Z,27.37
2019-02-16T12:17:34.353Z,28.15
2019-02-16T12:20:21.337Z,26.02
2019-02-16T12:23:01.994Z,28.15
2019-02-16T12:25:47.758Z,25.00
2019-02-16T12:28:31.738Z,25.97
2019-02-16T12:31:17.560Z,28.20
2019-02-16T12:34:07.428Z,23.77
2019-02-16T12:36:41.489Z,26.48
2019-02-16T12:39:34.151Z,25.23
2019-02-16T12:42:26.837Z,24.92
2019-02-16T12:45:03.187Z,25.52
2019-02-16T12:47:47.104Z,25.23
2019-02-16T12:50:22.766Z,27.15
2019-02-16T12:53:21.791Z,24.20
2019-02-16T12:55:59.719Z,24.65
2019-02-16T12:58:59.013Z,26.87
2019-02-16T13:01:42.633Z,26.60
2019-02-16T13:04:20.153Z,27.00
2019-02-16T13:07:22.232Z,26.07
2019-02-16T13:10:01.504Z,24.40
2019-02-16T13:12:41.777Z,25.37
2019-02-16T13:15:17.184Z,24.77
2019-02-16T13:18:10.387Z,25.50
2019-02-16T13:20:49.066Z,25.83
2019-02-16T13:23:42.265Z,29.00
2019-02-16T13:26:32.450Z,28.83
2019-02-16T13:29:22.515Z,24.57
2019-02-16T13:32:18.748Z,26.15
2019-02-16T13:34:52.682Z,29.75
2019-02-16T13:37:45.937Z,25.17
2019-02-16T13:40:44.993Z,26.37
2019-02-16T13:43:19.324Z,26.33
2019-02-16T13:46:02.295Z,25.07
2019-02-16T13:48:43.874Z,24.90
2019-02-16T13:51:22.746Z,26.05
2019-02-16T13:54:08.541Z,24.70
2019-02-16T13:57:01.922Z,24.80
2019-02-16T13:59:36.887Z,24.25
2019-02-16T14:02:20.482Z,26.05
2019-02-16T14:05:10.169Z,25.73
2019-02-16T14:07:45.644Z,27.30
2019-02-16T14:10:27.878Z,25.62
2019-02-16T14:13:02.633Z,26.95
2019-02-16T14:15:41.499Z,28.70
2019-02-16T14:18:09.350Z,26.70
2019-02-16T14:20:38.656Z,28.83
2019-02-16T14:23:06.697Z,27.42
2019-02-16T14:25:43.667Z,25.95
2019-02-16T14:28:10.049Z,27.02
2019-02-16T14:30:37.923Z,26.17
2019-02-16T14:33:05.803Z,25.27
2019-02-16T14:35:33.693Z,25.70
2019-02-16T14:38:09.254Z,25.35
2019-02-16T14:40:37.121Z,27.67
2019-02-16T14:43:04.943Z,25.23
2019-02-16T14:45:35.737Z,26.40
2019-02-16T14:48:03.573Z,26.52
2019-02-16T14:50:31.474Z,24.87
2019-02-16T14:52:59.346Z,27.48
2019-02-16T14:55:27.231Z,25.57
2019-02-16T14:57:55.122Z,26.15
2019-02-16T15:00:22.987Z,26.97
2019-02-16T15:02:50.863Z,26.62
2019-02-16T15:05:18.799Z,25.60
2019-02-16T15:07:46.658Z,26.82
2019-02-16T15:10:14.540Z,28.02
2019-02-16T15:12:42.505Z,25.02
2019-02-16T15:15:10.476Z,25.35
2019-02-16T15:17:38.400Z,25.32
2019-02-16T15:20:06.938Z,26.10
2019-02-16T15:22:34.894Z,27.58
2019-02-16T15:25:02.767Z,24.75
2019-02-16T15:27:30.784Z,24.80
2019-02-16T15:29:58.727Z,24.20
2019-02-16T15:32:26.639Z,28.17
2019-02-16T15:34:54.606Z,27.55
2019-02-16T15:37:22.525Z,24.72
2019-02-16T15:39:50.392Z,25.05
2019-02-16T15:42:18.345Z,26.35
2019-02-16T15:44:46.379Z,25.85
2019-02-16T15:47:14.322Z,24.32
2019-02-16T15:49:42.222Z,25.05
2019-02-16T15:52:10.086Z,27.48
2019-02-16T15:54:37.973Z,25.20
2019-02-16T15:57:05.837Z,26.37
2019-02-16T15:59:35.389Z,27.05
2019-02-16T16:02:03.453Z,25.17
2019-02-16T16:04:31.342Z,24.87
2019-02-16T16:06:59.209Z,24.52
2019-02-16T16:09:35.788Z,27.77
2019-02-16T16:12:14.771Z,25.12
2019-02-16T16:15:04.393Z,25.97
2019-02-16T16:17:51.332Z,22.40
2019-02-16T16:20:50.309Z,28.00
2019-02-16T16:23:40.255Z,25.27
2019-02-16T16:26:39.339Z,26.68
2019-02-16T16:29:26.248Z,26.02
2019-02-16T16:32:04.576Z,28.52
2019-02-16T16:34:42.624Z,26.40
2019-02-16T16:37:32.233Z,26.73
2019-02-16T16:40:25.431Z,26.42
2019-02-16T16:43:21.390Z,26.25
2019-02-16T16:46:01.827Z,26.55
2019-02-16T16:48:55.370Z,27.58
2019-02-16T16:51:42.315Z,24.55
2019-02-16T16:54:19.071Z,28.25
2019-02-16T16:57:04.850Z,26.37
2019-02-16T16:59:50.450Z,24.43
2019-02-16T17:02:36.438Z,27.02
2019-02-16T17:05:23.500Z,26.87
2019-02-16T17:08:00.635Z,29.12
2019-02-16T17:10:47.532Z,27.02
2019-02-16T17:13:34.178Z,29.48
2019-02-16T17:16:27.381Z,28.10
2019-02-16T17:19:00.170Z,29.65
2019-02-16T17:21:45.776Z,32.03
2019-02-16T17:24:31.210Z,29.55
2019-02-16T17:27:24.206Z,32.78
2019-02-16T17:30:14.186Z,33.63
2019-02-16T17:33:07.309Z,30.08
2019-02-16T17:35:43.706Z,30.10
2019-02-16T17:38:25.638Z,27.60
2019-02-16T17:41:12.660Z,28.10
2019-02-16T17:43:55.684Z,30.12
2019-02-16T17:46:51.361Z,25.20
2019-02-16T17:49:33.978Z,27.05
2019-02-16T17:52:22.182Z,33.55
2019-02-16T17:55:18.087Z,28.65
2019-02-16T17:58:04.117Z,30.72
2019-02-16T18:01:06.141Z,30.25
2019-02-16T18:03:51.418Z,30.52
2019-02-16T18:06:50.628Z,28.45
2019-02-16T18:09:33.558Z,30.17
2019-02-16T18:12:29.459Z,29.12
2019-02-16T18:15:09.352Z,30.12
2019-02-16T18:17:56.311Z,32.20
2019-02-16T18:20:49.492Z,33.42
2019-02-16T18:23:35.539Z,29.23
2019-02-16T18:26:31.498Z,40.60
2019-02-16T18:29:27.468Z,39.42
2019-02-16T18:32:17.522Z,33.70
2019-02-16T18:35:24.195Z,32.65
2019-02-16T18:38:17.686Z,32.30
2019-02-16T18:41:02.176Z,35.85
2019-02-16T18:43:59.824Z,33.25
2019-02-16T18:46:45.786Z,29.32
2019-02-16T18:49:31.333Z,32.78
2019-02-16T18:52:13.777Z,37.83
2019-02-16T18:55:12.765Z,34.60
2019-02-16T18:58:02.590Z,34.83
2019-02-16T19:00:35.582Z,33.92
2019-02-16T19:03:21.462Z,34.45
2019-02-16T19:06:02.331Z,35.90
2019-02-16T19:08:58.466Z,32.88
2019-02-16T19:12:00.521Z,32.95
2019-02-16T19:14:47.679Z,38.55
2019-02-16T19:17:37.848Z,32.35
2019-02-16T19:20:31.272Z,33.55
2019-02-16T19:23:24.775Z,37.15
2019-02-16T19:26:11.683Z,34.90
2019-02-16T19:29:07.945Z,31.15
2019-02-16T19:31:53.727Z,34.48
2019-02-16T19:34:37.314Z,31.90
2019-02-16T19:37:24.331Z,34.80
2019-02-16T19:40:17.450Z,34.18
2019-02-16T19:43:17.022Z,35.73
2019-02-16T19:46:03.949Z,34.83
2019-02-16T19:49:05.042Z,36.55
2019-02-16T19:51:54.668Z,39.98
2019-02-16T19:54:43.986Z,42.70
2019-02-16T19:57:32.966Z,34.67
2019-02-16T20:00:21.291Z,35.40
2019-02-16T20:03:07.075Z,35.20
2019-02-16T20:06:00.302Z,42.48
2019-02-16T20:08:33.744Z,36.63
2019-02-16T20:11:23.688Z,41.33
2019-02-16T20:14:01.752Z,41.63
2019-02-16T20:16:41.773Z,45.50
2019-02-16T20:19:27.773Z,41.05
2019-02-16T20:22:01.775Z,44.75
2019-02-16T20:24:48.098Z,43.08
2019-02-16T20:27:37.832Z,39.90
2019-02-16T20:30:23.839Z,47.20
2019-02-16T20:33:12.990Z,40.08
2019-02-16T20:35:55.420Z,42.27
2019-02-16T20:38:46.547Z,44.75
2019-02-16T20:41:51.961Z,49.33
2019-02-16T20:44:29.979Z,41.95
2019-02-16T20:47:14.513Z,41.60
2019-02-16T20:50:07.529Z,44.93
2019-02-16T20:52:53.002Z,40.00
2019-02-16T20:55:40.204Z,40.88
2019-02-16T20:58:39.766Z,39.92
2019-02-16T21:01:20.079Z,35.63
2019-02-16T21:04:12.801Z,36.00
2019-02-16T21:07:04.872Z,35.05
2019-02-16T21:09:50.574Z,35.83
2019-02-16T21:12:34.465Z,34.85
2019-02-16T21:15:20.235Z,32.93
2019-02-16T21:18:06.374Z,36.03
2019-02-16T21:20:53.654Z,32.33
2019-02-16T21:23:55.655Z,34.70
2019-02-16T21:26:45.612Z,34.70
2019-02-16T21:29:31.294Z,32.75
2019-02-16T21:32:05.238Z,32.08
2019-02-16T21:34:52.116Z,36.03
2019-02-16T21:37:30.989Z,32.48
2019-02-16T21:40:07.856Z,37.53
2019-02-16T21:42:57.465Z,32.78
2019-02-16T21:45:37.673Z,30.23
2019-02-16T21:48:27.684Z,31.20
2019-02-16T21:51:10.881Z,35.92
2019-02-16T21:54:08.634Z,36.30
2019-02-16T21:56:55.490Z,39.98
2019-02-16T21:59:36.141Z,37.42
2019-02-16T22:02:32.183Z,39.10
2019-02-16T22:05:09.769Z,38.95
2019-02-16T22:07:48.269Z,30.40
2019-02-16T22:10:21.690Z,37.48
2019-02-16T22:13:07.675Z,36.83
2019-02-16T22:15:35.535Z,35.68
2019-02-16T22:18:03.407Z,37.05
2019-02-16T22:20:31.333Z,31.97
2019-02-16T22:22:59.169Z,36.38
2019-02-16T22:25:27.098Z,33.67
2019-02-16T22:27:55.000Z,33.98
2019-02-16T22:30:22.877Z,31.25
2019-02-16T22:32:50.703Z,32.15
2019-02-16T22:35:18.592Z,35.23
2019-02-16T22:37:46.437Z,32.25
2019-02-16T22:40:14.308Z,32.80
2019-02-16T22:42:42.123Z,32.93
2019-02-16T22:45:10.033Z,40.05
2019-02-16T22:47:37.900Z,30.45
2019-02-16T22:50:06.838Z,31.00
2019-02-16T22:52:34.666Z,32.80
2019-02-16T22:55:02.517Z,30.77
2019-02-16T22:57:30.385Z,29.25
2019-02-16T22:59:58.263Z,30.75
2019-02-16T23:02:26.105Z,32.00
2019-02-16T23:04:53.962Z,29.77
2019-02-16T23:07:21.854Z,33.90
2019-02-16T23:09:50.135Z,34.70
2019-02-16T23:12:17.977Z,30.55
2019-02-16T23:14:45.801Z,33.75
2019-02-16T23:17:13.701Z,35.35
2019-02-16T23:19:41.561Z,32.10
2019-02-16T23:22:09.440Z,32.70
2019-02-16T23:24:37.278Z,35.10
2019-02-16T23:27:05.304Z,30.52
2019-02-16T23:29:33.116Z,33.92
2019-02-16T23:32:00.974Z,30.88
2019-02-16T23:34:28.820Z,31.62
2019-02-16T23:36:56.750Z,32.80
2019-02-16T23:39:24.570Z,38.55
2019-02-16T23:41:52.451Z,33.73
2019-02-16T23:44:20.373Z,33.90
2019-02-16T23:46:48.314Z,33.42
2019-02-16T23:49:16.144Z,33.33
2019-02-16T23:51:43.982Z,34.88
2019-02-16T23:54:11.864Z,30.15
2019-02-16T23:56:39.710Z,33.50
2019-02-16T23:59:07.566Z,32.42
